CheckWX is a tool to help pilots better visualize weather data.  It is not intended as a substitute for an official pre-flight weather briefing.

20:04:29 UTC

LFBO TAF
Toulouse-Blagnac Airport
Toulouse/Blagnac, France
TAF LFBO 251700Z 2518/2624 14015KT CAVOK TEMPO 2609/2618 14020G35KT

Jun-25@
18:00 UTC

Jun-25 @ 18:00 UTC

Jun-27@
00:00 UTC

Jun-27 @ 00:00 UTC

TAF LFBO 251700Z 2518/2624 14015KT CAVOK
Wind
  • 140° at 15 KTS
Conditions
No significant weather
Cloud Levels
  • No significant clouds

Jun-26@
09:00 UTC

Jun-26 @ 09:00 UTC

Jun-26@
18:00 UTC

Jun-26 @ 18:00 UTC

TEMPO 2609/2618 14020G35KT

Temporary

Temporary Changes expected for less than half the time period

Wind
  • 140° at 20 KTS
  • {Gusting to 35 KTS